sensor_id;sensor_type;location;lat;lon;timestamp;temperature;humidity
59311;DHT22;45078;51.654;21.250;2022-08-01T00:01:02;14.90;99.90
59311;DHT22;45078;51.654;21.250;2022-08-01T00:03:27;14.90;99.90
59311;DHT22;45078;51.654;21.250;2022-08-01T00:05:53;14.90;99.90
59311;DHT22;45078;51.654;21.250;2022-08-01T00:08:19;14.90;99.90
59311;DHT22;45078;51.654;21.250;2022-08-01T00:10:45;14.90;99.90
59311;DHT22;45078;51.654;21.250;2022-08-01T00:13:14;14.90;99.90
59311;DHT22;45078;51.654;21.250;2022-08-01T00:15:39;14.90;99.90
59311;DHT22;45078;51.654;21.250;2022-08-01T00:18:05;14.90;99.90
59311;DHT22;45078;51.654;21.250;2022-08-01T00:20:31;14.90;99.90
59311;DHT22;45078;51.654;21.250;2022-08-01T00:22:57;14.90;99.90
59311;DHT22;45078;51.654;21.250;2022-08-01T00:25:23;14.90;99.90
59311;DHT22;45078;51.654;21.250;2022-08-01T00:27:49;14.90;99.90
59311;DHT22;45078;51.654;21.250;2022-08-01T00:30:15;14.90;99.90
59311;DHT22;45078;51.654;21.250;2022-08-01T00:32:42;14.90;99.90
59311;DHT22;45078;51.654;21.250;2022-08-01T00:35:08;14.90;99.90
59311;DHT22;45078;51.654;21.250;2022-08-01T00:37:34;14.90;99.90
59311;DHT22;45078;51.654;21.250;2022-08-01T00:40:00;14.90;99.90
59311;DHT22;45078;51.654;21.250;2022-08-01T00:42:26;14.90;99.90
59311;DHT22;45078;51.654;21.250;2022-08-01T00:44:52;14.90;99.90
59311;DHT22;45078;51.654;21.250;2022-08-01T00:47:17;14.90;99.90
59311;DHT22;45078;51.654;21.250;2022-08-01T00:49:43;14.90;99.90
59311;DHT22;45078;51.654;21.250;2022-08-01T00:52:09;14.90;99.90
59311;DHT22;45078;51.654;21.250;2022-08-01T00:54:36;14.90;99.90
59311;DHT22;45078;51.654;21.250;2022-08-01T00:57:02;14.80;99.90
59311;DHT22;45078;51.654;21.250;2022-08-01T00:59:29;14.80;99.90
59311;DHT22;45078;51.654;21.250;2022-08-01T01:01:55;14.80;99.90
59311;DHT22;45078;51.654;21.250;2022-08-01T01:04:21;14.80;99.90
59311;DHT22;45078;51.654;21.250;2022-08-01T01:10:15;14.80;99.90
59311;DHT22;45078;51.654;21.250;2022-08-01T01:12:50;14.80;99.90
59311;DHT22;45078;51.654;21.250;2022-08-01T01:15:41;14.80;99.90
59311;DHT22;45078;51.654;21.250;2022-08-01T01:18:15;14.80;99.90
59311;DHT22;45078;51.654;21.250;2022-08-01T01:20:45;14.80;99.90
59311;DHT22;45078;51.654;21.250;2022-08-01T01:26:21;14.80;99.90
59311;DHT22;45078;51.654;21.250;2022-08-01T01:31:27;14.80;99.90
59311;DHT22;45078;51.654;21.250;2022-08-01T01:33:54;14.80;99.90
59311;DHT22;45078;51.654;21.250;2022-08-01T01:36:21;14.80;99.90
59311;DHT22;45078;51.654;21.250;2022-08-01T01:38:48;14.80;99.90
59311;DHT22;45078;51.654;21.250;2022-08-01T01:41:16;14.80;99.90
59311;DHT22;45078;51.654;21.250;2022-08-01T01:43:42;14.80;99.90
59311;DHT22;45078;51.654;21.250;2022-08-01T01:46:11;14.80;99.90
59311;DHT22;45078;51.654;21.250;2022-08-01T01:48:38;14.80;99.90
59311;DHT22;45078;51.654;21.250;2022-08-01T01:51:05;14.80;99.90
59311;DHT22;45078;51.654;21.250;2022-08-01T01:53:33;14.80;99.90
59311;DHT22;45078;51.654;21.250;2022-08-01T01:56:02;14.80;99.90
59311;DHT22;45078;51.654;21.250;2022-08-01T01:58:29;14.80;99.90
59311;DHT22;45078;51.654;21.250;2022-08-01T02:00:58;14.80;99.90
59311;DHT22;45078;51.654;21.250;2022-08-01T02:03:26;14.80;99.90
59311;DHT22;45078;51.654;21.250;2022-08-01T02:05:53;14.80;99.90
59311;DHT22;45078;51.654;21.250;2022-08-01T02:08:20;14.80;99.90
59311;DHT22;45078;51.654;21.250;2022-08-01T02:10:51;14.80;99.90
59311;DHT22;45078;51.654;21.250;2022-08-01T02:13:37;14.80;99.90
59311;DHT22;45078;51.654;21.250;2022-08-01T02:16:04;14.80;99.90
59311;DHT22;45078;51.654;21.250;2022-08-01T02:18:32;14.80;99.90
59311;DHT22;45078;51.654;21.250;2022-08-01T02:20:59;14.80;99.90
59311;DHT22;45078;51.654;21.250;2022-08-01T02:23:31;14.80;99.90
59311;DHT22;45078;51.654;21.250;2022-08-01T02:25:58;14.80;99.90
59311;DHT22;45078;51.654;21.250;2022-08-01T02:28:34;14.80;99.90
59311;DHT22;45078;51.654;21.250;2022-08-01T02:31:04;14.80;99.90
59311;DHT22;45078;51.654;21.250;2022-08-01T02:33:38;14.80;99.90
59311;DHT22;45078;51.654;21.250;2022-08-01T02:36:06;14.80;99.90
59311;DHT22;45078;51.654;21.250;2022-08-01T02:38:36;14.90;99.90
59311;DHT22;45078;51.654;21.250;2022-08-01T02:41:07;14.90;99.90
59311;DHT22;45078;51.654;21.250;2022-08-01T02:43:37;14.90;99.90
59311;DHT22;45078;51.654;21.250;2022-08-01T02:46:05;14.90;99.90
59311;DHT22;45078;51.654;21.250;2022-08-01T02:48:34;14.90;99.90
59311;DHT22;45078;51.654;21.250;2022-08-01T02:51:01;14.80;99.90
59311;DHT22;45078;51.654;21.250;2022-08-01T02:53:31;14.80;99.90
59311;DHT22;45078;51.654;21.250;2022-08-01T02:56:01;14.80;99.90
59311;DHT22;45078;51.654;21.250;2022-08-01T02:58:28;14.80;99.90
59311;DHT22;45078;51.654;21.250;2022-08-01T03:00:54;14.80;99.90
59311;DHT22;45078;51.654;21.250;2022-08-01T03:03:20;14.80;99.90
59311;DHT22;45078;51.654;21.250;2022-08-01T03:05:47;14.80;99.90
59311;DHT22;45078;51.654;21.250;2022-08-01T03:08:15;14.70;99.90
59311;DHT22;45078;51.654;21.250;2022-08-01T03:10:44;14.80;99.90
59311;DHT22;45078;51.654;21.250;2022-08-01T03:13:11;14.80;99.90
59311;DHT22;45078;51.654;21.250;2022-08-01T03:15:39;14.80;99.90
59311;DHT22;45078;51.654;21.250;2022-08-01T03:18:09;14.80;99.90
59311;DHT22;45078;51.654;21.250;2022-08-01T03:20:36;14.70;99.90
59311;DHT22;45078;51.654;21.250;2022-08-01T03:23:05;14.70;99.90
59311;DHT22;45078;51.654;21.250;2022-08-01T03:25:33;14.70;99.90
59311;DHT22;45078;51.654;21.250;2022-08-01T03:28:03;14.70;99.90
59311;DHT22;45078;51.654;21.250;2022-08-01T03:30:30;14.70;99.90
59311;DHT22;45078;51.654;21.250;2022-08-01T03:32:57;14.70;99.90
59311;DHT22;45078;51.654;21.250;2022-08-01T03:35:29;14.70;99.90
59311;DHT22;45078;51.654;21.250;2022-08-01T03:37:56;14.70;99.90
59311;DHT22;45078;51.654;21.250;2022-08-01T03:40:30;14.70;99.90
59311;DHT22;45078;51.654;21.250;2022-08-01T03:43:32;14.60;99.90
59311;DHT22;45078;51.654;21.250;2022-08-01T03:46:06;14.60;99.90
59311;DHT22;45078;51.654;21.250;2022-08-01T03:48:42;14.50;99.90
59311;DHT22;45078;51.654;21.250;2022-08-01T03:51:08;14.50;99.90
59311;DHT22;45078;51.654;21.250;2022-08-01T03:53:35;14.50;99.90
59311;DHT22;45078;51.654;21.250;2022-08-01T03:56:02;14.50;99.90
59311;DHT22;45078;51.654;21.250;2022-08-01T03:58:30;14.50;99.90
59311;DHT22;45078;51.654;21.250;2022-08-01T04:00:57;14.50;99.90
59311;DHT22;45078;51.654;21.250;2022-08-01T04:03:23;14.50;99.90
59311;DHT22;45078;51.654;21.250;2022-08-01T04:05:49;14.40;99.90
59311;DHT22;45078;51.654;21.250;2022-08-01T04:08:15;14.40;99.90
59311;DHT22;45078;51.654;21.250;2022-08-01T04:10:41;14.40;99.90
59311;DHT22;45078;51.654;21.250;2022-08-01T04:13:07;14.40;99.90
59311;DHT22;45078;51.654;21.250;2022-08-01T04:15:33;14.50;99.90
59311;DHT22;45078;51.654;21.250;2022-08-01T04:17:59;14.50;99.90
59311;DHT22;45078;51.654;21.250;2022-08-01T04:20:24;14.60;99.90
59311;DHT22;45078;51.654;21.250;2022-08-01T04:22:50;14.60;99.90
59311;DHT22;45078;51.654;21.250;2022-08-01T04:25:24;14.70;99.90
59311;DHT22;45078;51.654;21.250;2022-08-01T04:27:52;14.70;99.90
59311;DHT22;45078;51.654;21.250;2022-08-01T04:30:23;14.80;99.90
59311;DHT22;45078;51.654;21.250;2022-08-01T04:32:51;14.90;99.90
59311;DHT22;45078;51.654;21.250;2022-08-01T04:35:19;14.90;99.90
59311;DHT22;45078;51.654;21.250;2022-08-01T04:37:46;14.90;99.90
59311;DHT22;45078;51.654;21.250;2022-08-01T04:40:14;15.00;99.90
59311;DHT22;45078;51.654;21.250;2022-08-01T04:42:41;15.10;99.90
59311;DHT22;45078;51.654;21.250;2022-08-01T04:45:08;15.10;99.90
59311;DHT22;45078;51.654;21.250;2022-08-01T04:47:36;15.10;99.90
59311;DHT22;45078;51.654;21.250;2022-08-01T04:50:08;15.10;99.90
59311;DHT22;45078;51.654;21.250;2022-08-01T04:52:35;15.20;99.90
59311;DHT22;45078;51.654;21.250;2022-08-01T04:55:02;15.20;99.90
59311;DHT22;45078;51.654;21.250;2022-08-01T04:57:28;15.10;99.90
59311;DHT22;45078;51.654;21.250;2022-08-01T04:59:54;15.10;99.90
59311;DHT22;45078;51.654;21.250;2022-08-01T05:02:22;15.20;99.90
59311;DHT22;45078;51.654;21.250;2022-08-01T05:04:49;15.30;99.90
59311;DHT22;45078;51.654;21.250;2022-08-01T05:07:15;15.30;99.90
59311;DHT22;45078;51.654;21.250;2022-08-01T05:09:41;15.30;99.90
59311;DHT22;45078;51.654;21.250;2022-08-01T05:12:09;15.40;99.90
59311;DHT22;45078;51.654;21.250;2022-08-01T05:14:37;15.40;99.90
59311;DHT22;45078;51.654;21.250;2022-08-01T05:17:05;15.50;99.90
59311;DHT22;45078;51.654;21.250;2022-08-01T05:19:35;15.60;99.90
59311;DHT22;45078;51.654;21.250;2022-08-01T05:22:04;15.70;99.90
59311;DHT22;45078;51.654;21.250;2022-08-01T05:24:36;15.70;99.90
59311;DHT22;45078;51.654;21.250;2022-08-01T05:27:02;15.70;99.90
59311;DHT22;45078;51.654;21.250;2022-08-01T05:29:29;15.80;99.90
59311;DHT22;45078;51.654;21.250;2022-08-01T05:31:55;15.90;99.90
59311;DHT22;45078;51.654;21.250;2022-08-01T05:34:22;16.10;99.90
59311;DHT22;45078;51.654;21.250;2022-08-01T05:36:48;16.30;99.90
59311;DHT22;45078;51.654;21.250;2022-08-01T05:39:14;16.50;99.90
59311;DHT22;45078;51.654;21.250;2022-08-01T05:41:41;16.40;99.90
59311;DHT22;45078;51.654;21.250;2022-08-01T05:44:07;16.50;99.90
59311;DHT22;45078;51.654;21.250;2022-08-01T05:46:35;16.60;99.90
59311;DHT22;45078;51.654;21.250;2022-08-01T05:49:02;16.60;99.90
59311;DHT22;45078;51.654;21.250;2022-08-01T05:51:29;16.70;99.90
59311;DHT22;45078;51.654;21.250;2022-08-01T05:53:55;16.70;99.90
59311;DHT22;45078;51.654;21.250;2022-08-01T05:56:21;16.50;99.90
59311;DHT22;45078;51.654;21.250;2022-08-01T05:58:48;16.60;99.90
59311;DHT22;45078;51.654;21.250;2022-08-01T06:01:15;17.00;99.90
59311;DHT22;45078;51.654;21.250;2022-08-01T06:03:41;17.30;99.90
59311;DHT22;45078;51.654;21.250;2022-08-01T06:06:06;17.50;99.90
59311;DHT22;45078;51.654;21.250;2022-08-01T06:08:32;17.90;99.90
59311;DHT22;45078;51.654;21.250;2022-08-01T06:10:58;18.30;99.90
59311;DHT22;45078;51.654;21.250;2022-08-01T06:13:25;18.30;99.90
59311;DHT22;45078;51.654;21.250;2022-08-01T06:15:51;18.50;99.90
59311;DHT22;45078;51.654;21.250;2022-08-01T06:18:17;18.90;99.90
59311;DHT22;45078;51.654;21.250;2022-08-01T06:20:43;19.00;99.90
59311;DHT22;45078;51.654;21.250;2022-08-01T06:23:09;18.50;99.90
59311;DHT22;45078;51.654;21.250;2022-08-01T06:25:35;18.60;99.90
59311;DHT22;45078;51.654;21.250;2022-08-01T06:28:01;18.50;99.90
59311;DHT22;45078;51.654;21.250;2022-08-01T06:30:27;18.20;99.90
59311;DHT22;45078;51.654;21.250;2022-08-01T06:32:53;18.10;99.90
59311;DHT22;45078;51.654;21.250;2022-08-01T06:35:21;18.00;99.90
59311;DHT22;45078;51.654;21.250;2022-08-01T06:37:47;17.90;99.90
59311;DHT22;45078;51.654;21.250;2022-08-01T06:40:14;18.10;99.90
59311;DHT22;45078;51.654;21.250;2022-08-01T06:42:40;18.30;99.90
59311;DHT22;45078;51.654;21.250;2022-08-01T06:45:10;18.30;99.90
59311;DHT22;45078;51.654;21.250;2022-08-01T06:47:40;18.50;99.90
59311;DHT22;45078;51.654;21.250;2022-08-01T06:50:07;18.70;99.90
59311;DHT22;45078;51.654;21.250;2022-08-01T06:52:34;18.90;99.90
59311;DHT22;45078;51.654;21.250;2022-08-01T06:55:01;18.90;99.90
59311;DHT22;45078;51.654;21.250;2022-08-01T06:57:27;19.10;99.90
59311;DHT22;45078;51.654;21.250;2022-08-01T06:59:53;19.20;99.90
59311;DHT22;45078;51.654;21.250;2022-08-01T07:02:19;19.50;99.90
59311;DHT22;45078;51.654;21.250;2022-08-01T07:04:45;19.50;99.90
59311;DHT22;45078;51.654;21.250;2022-08-01T07:07:11;19.40;99.90
59311;DHT22;45078;51.654;21.250;2022-08-01T07:09:37;19.30;99.90
59311;DHT22;45078;51.654;21.250;2022-08-01T07:12:06;19.40;99.90
59311;DHT22;45078;51.654;21.250;2022-08-01T07:14:32;19.40;99.90
59311;DHT22;45078;51.654;21.250;2022-08-01T07:16:58;19.70;99.90
59311;DHT22;45078;51.654;21.250;2022-08-01T07:19:24;20.00;99.90
59311;DHT22;45078;51.654;21.250;2022-08-01T07:21:50;20.00;99.90
59311;DHT22;45078;51.654;21.250;2022-08-01T07:24:17;20.00;99.90
59311;DHT22;45078;51.654;21.250;2022-08-01T07:26:44;20.00;99.90
59311;DHT22;45078;51.654;21.250;2022-08-01T07:29:11;20.20;99.90
59311;DHT22;45078;51.654;21.250;2022-08-01T07:31:36;20.30;99.90
59311;DHT22;45078;51.654;21.250;2022-08-01T07:34:02;20.30;99.90
59311;DHT22;45078;51.654;21.250;2022-08-01T07:36:28;20.30;99.90
59311;DHT22;45078;51.654;21.250;2022-08-01T07:38:54;20.20;99.90
59311;DHT22;45078;51.654;21.250;2022-08-01T07:41:21;20.20;99.90
59311;DHT22;45078;51.654;21.250;2022-08-01T07:43:46;20.20;99.90
59311;DHT22;45078;51.654;21.250;2022-08-01T07:46:15;20.30;99.90
59311;DHT22;45078;51.654;21.250;2022-08-01T07:48:41;20.30;99.90
59311;DHT22;45078;51.654;21.250;2022-08-01T07:51:07;20.40;99.90
59311;DHT22;45078;51.654;21.250;2022-08-01T07:53:34;20.40;99.90
59311;DHT22;45078;51.654;21.250;2022-08-01T07:56:00;20.60;99.90
59311;DHT22;45078;51.654;21.250;2022-08-01T07:58:28;20.70;99.90
59311;DHT22;45078;51.654;21.250;2022-08-01T08:00:54;20.80;99.90
59311;DHT22;45078;51.654;21.250;2022-08-01T08:03:20;20.90;99.90
59311;DHT22;45078;51.654;21.250;2022-08-01T08:05:46;20.90;99.90
59311;DHT22;45078;51.654;21.250;2022-08-01T08:08:11;20.60;99.90
59311;DHT22;45078;51.654;21.250;2022-08-01T08:10:39;20.70;99.90
59311;DHT22;45078;51.654;21.250;2022-08-01T08:13:05;20.60;99.90
59311;DHT22;45078;51.654;21.250;2022-08-01T08:15:31;20.70;99.90
59311;DHT22;45078;51.654;21.250;2022-08-01T08:17:57;20.80;99.90
59311;DHT22;45078;51.654;21.250;2022-08-01T08:20:22;20.90;99.90
59311;DHT22;45078;51.654;21.250;2022-08-01T08:22:54;21.00;99.90
59311;DHT22;45078;51.654;21.250;2022-08-01T08:25:21;21.00;99.90
59311;DHT22;45078;51.654;21.250;2022-08-01T08:27:50;21.00;99.90
59311;DHT22;45078;51.654;21.250;2022-08-01T08:30:16;21.10;99.90
59311;DHT22;45078;51.654;21.250;2022-08-01T08:32:42;21.20;99.90
59311;DHT22;45078;51.654;21.250;2022-08-01T08:35:08;21.10;99.90
59311;DHT22;45078;51.654;21.250;2022-08-01T08:37:35;21.30;99.90
59311;DHT22;45078;51.654;21.250;2022-08-01T08:40:02;21.50;99.90
59311;DHT22;45078;51.654;21.250;2022-08-01T08:42:29;21.70;99.90
59311;DHT22;45078;51.654;21.250;2022-08-01T08:44:55;21.60;99.90
59311;DHT22;45078;51.654;21.250;2022-08-01T08:47:22;21.40;99.90
59311;DHT22;45078;51.654;21.250;2022-08-01T08:49:51;21.30;99.90
59311;DHT22;45078;51.654;21.250;2022-08-01T08:52:19;21.40;99.90
59311;DHT22;45078;51.654;21.250;2022-08-01T08:54:45;21.40;99.90
59311;DHT22;45078;51.654;21.250;2022-08-01T08:57:14;21.50;99.90
59311;DHT22;45078;51.654;21.250;2022-08-01T08:59:40;21.50;99.90
59311;DHT22;45078;51.654;21.250;2022-08-01T09:02:07;21.60;99.90
59311;DHT22;45078;51.654;21.250;2022-08-01T09:04:36;21.70;99.90
59311;DHT22;45078;51.654;21.250;2022-08-01T09:07:04;21.90;99.90
59311;DHT22;45078;51.654;21.250;2022-08-01T09:09:31;21.90;99.90
59311;DHT22;45078;51.654;21.250;2022-08-01T09:11:57;22.00;99.90
59311;DHT22;45078;51.654;21.250;2022-08-01T09:14:23;22.10;99.90
59311;DHT22;45078;51.654;21.250;2022-08-01T09:17:05;22.10;99.90
59311;DHT22;45078;51.654;21.250;2022-08-01T09:19:43;22.00;99.90
59311;DHT22;45078;51.654;21.250;2022-08-01T09:22:11;22.30;99.90
59311;DHT22;45078;51.654;21.250;2022-08-01T09:24:38;22.30;99.90
59311;DHT22;45078;51.654;21.250;2022-08-01T09:27:23;22.50;99.90
59311;DHT22;45078;51.654;21.250;2022-08-01T09:29:52;22.30;99.90
59311;DHT22;45078;51.654;21.250;2022-08-01T09:32:19;22.20;99.90
59311;DHT22;45078;51.654;21.250;2022-08-01T09:34:45;22.20;99.90
59311;DHT22;45078;51.654;21.250;2022-08-01T09:37:12;22.30;99.90
59311;DHT22;45078;51.654;21.250;2022-08-01T09:39:42;22.40;99.90
59311;DHT22;45078;51.654;21.250;2022-08-01T09:42:22;22.40;99.90
59311;DHT22;45078;51.654;21.250;2022-08-01T09:44:48;22.40;99.90
59311;DHT22;45078;51.654;21.250;2022-08-01T09:47:15;22.40;99.90
59311;DHT22;45078;51.654;21.250;2022-08-01T09:49:43;22.50;99.90
59311;DHT22;45078;51.654;21.250;2022-08-01T09:52:20;22.70;99.90
59311;DHT22;45078;51.654;21.250;2022-08-01T09:55:05;22.80;99.90
59311;DHT22;45078;51.654;21.250;2022-08-01T09:57:31;22.90;99.90
59311;DHT22;45078;51.654;21.250;2022-08-01T09:59:59;22.90;99.90
59311;DHT22;45078;51.654;21.250;2022-08-01T10:02:31;23.00;99.90
59311;DHT22;45078;51.654;21.250;2022-08-01T10:04:58;23.10;99.90
59311;DHT22;45078;51.654;21.250;2022-08-01T10:07:24;23.20;99.90
59311;DHT22;45078;51.654;21.250;2022-08-01T10:09:50;22.90;99.90
59311;DHT22;45078;51.654;21.250;2022-08-01T10:12:18;22.90;99.90
59311;DHT22;45078;51.654;21.250;2022-08-01T10:14:46;23.10;99.90
59311;DHT22;45078;51.654;21.250;2022-08-01T10:17:18;23.20;99.90
59311;DHT22;45078;51.654;21.250;2022-08-01T10:19:44;23.30;99.90
59311;DHT22;45078;51.654;21.250;2022-08-01T10:22:12;23.30;99.90
59311;DHT22;45078;51.654;21.250;2022-08-01T10:24:44;23.30;99.90
59311;DHT22;45078;51.654;21.250;2022-08-01T10:27:14;23.30;99.90
59311;DHT22;45078;51.654;21.250;2022-08-01T10:29:51;23.50;99.90
59311;DHT22;45078;51.654;21.250;2022-08-01T10:32:21;23.60;99.90
59311;DHT22;45078;51.654;21.250;2022-08-01T10:34:51;23.80;99.90
59311;DHT22;45078;51.654;21.250;2022-08-01T10:37:18;23.60;99.90
59311;DHT22;45078;51.654;21.250;2022-08-01T10:39:47;23.60;99.90
59311;DHT22;45078;51.654;21.250;2022-08-01T10:42:13;23.50;99.90
59311;DHT22;45078;51.654;21.250;2022-08-01T10:44:40;23.60;99.90
59311;DHT22;45078;51.654;21.250;2022-08-01T10:47:10;23.50;99.90
59311;DHT22;45078;51.654;21.250;2022-08-01T10:49:43;23.60;99.90
59311;DHT22;45078;51.654;21.250;2022-08-01T10:52:17;23.90;99.90
59311;DHT22;45078;51.654;21.250;2022-08-01T10:54:44;23.80;99.90
59311;DHT22;45078;51.654;21.250;2022-08-01T10:57:10;23.80;99.90
59311;DHT22;45078;51.654;21.250;2022-08-01T10:59:48;24.00;99.90
59311;DHT22;45078;51.654;21.250;2022-08-01T11:02:29;24.20;99.90
59311;DHT22;45078;51.654;21.250;2022-08-01T11:05:07;24.30;99.90
59311;DHT22;45078;51.654;21.250;2022-08-01T11:07:53;24.20;99.90
59311;DHT22;45078;51.654;21.250;2022-08-01T11:10:30;24.30;99.90
59311;DHT22;45078;51.654;21.250;2022-08-01T11:12:58;24.40;99.90
59311;DHT22;45078;51.654;21.250;2022-08-01T11:15:26;24.10;99.90
59311;DHT22;45078;51.654;21.250;2022-08-01T11:17:56;24.30;99.90
59311;DHT22;45078;51.654;21.250;2022-08-01T11:20:26;24.40;99.90
59311;DHT22;45078;51.654;21.250;2022-08-01T11:25:26;24.70;99.90
59311;DHT22;45078;51.654;21.250;2022-08-01T11:30:51;24.40;99.90
59311;DHT22;45078;51.654;21.250;2022-08-01T11:33:19;24.40;99.90
59311;DHT22;45078;51.654;21.250;2022-08-01T11:38:48;24.20;99.90
59311;DHT22;45078;51.654;21.250;2022-08-01T11:41:21;24.00;99.90
59311;DHT22;45078;51.654;21.250;2022-08-01T11:44:10;24.20;99.90
59311;DHT22;45078;51.654;21.250;2022-08-01T11:49:28;24.60;99.90
59311;DHT22;45078;51.654;21.250;2022-08-01T11:52:18;24.80;99.90
59311;DHT22;45078;51.654;21.250;2022-08-01T11:54:49;24.80;99.90
59311;DHT22;45078;51.654;21.250;2022-08-01T11:57:22;24.90;99.90
59311;DHT22;45078;51.654;21.250;2022-08-01T11:59:57;24.70;99.90
59311;DHT22;45078;51.654;21.250;2022-08-01T12:02:28;24.50;99.90
59311;DHT22;45078;51.654;21.250;2022-08-01T12:04:59;24.60;99.90
59311;DHT22;45078;51.654;21.250;2022-08-01T12:07:26;24.90;99.90
59311;DHT22;45078;51.654;21.250;2022-08-01T12:10:12;24.70;99.90
59311;DHT22;45078;51.654;21.250;2022-08-01T12:12:50;24.90;99.90
59311;DHT22;45078;51.654;21.250;2022-08-01T12:15:19;25.00;99.90
59311;DHT22;45078;51.654;21.250;2022-08-01T12:17:47;25.10;99.90
59311;DHT22;45078;51.654;21.250;2022-08-01T12:20:15;24.70;99.90
59311;DHT22;45078;51.654;21.250;2022-08-01T12:22:42;24.60;99.90
59311;DHT22;45078;51.654;21.250;2022-08-01T12:25:13;24.90;99.90
59311;DHT22;45078;51.654;21.250;2022-08-01T12:27:41;25.10;99.70
59311;DHT22;45078;51.654;21.250;2022-08-01T12:30:09;25.10;99.90
59311;DHT22;45078;51.654;21.250;2022-08-01T12:32:38;25.10;99.90
59311;DHT22;45078;51.654;21.250;2022-08-01T12:35:08;25.20;99.90
59311;DHT22;45078;51.654;21.250;2022-08-01T12:37:46;25.40;99.90
59311;DHT22;45078;51.654;21.250;2022-08-01T12:40:16;25.40;99.90
59311;DHT22;45078;51.654;21.250;2022-08-01T12:42:48;25.60;99.90
59311;DHT22;45078;51.654;21.250;2022-08-01T12:45:17;25.60;99.90
59311;DHT22;45078;51.654;21.250;2022-08-01T12:47:45;25.30;99.90
59311;DHT22;45078;51.654;21.250;2022-08-01T12:50:15;25.60;99.90
59311;DHT22;45078;51.654;21.250;2022-08-01T12:52:41;25.50;99.90
59311;DHT22;45078;51.654;21.250;2022-08-01T12:55:21;25.70;99.90
59311;DHT22;45078;51.654;21.250;2022-08-01T12:57:50;25.80;99.90
59311;DHT22;45078;51.654;21.250;2022-08-01T13:00:18;25.50;99.90
59311;DHT22;45078;51.654;21.250;2022-08-01T13:02:46;25.30;99.90
59311;DHT22;45078;51.654;21.250;2022-08-01T13:05:13;24.70;99.90
59311;DHT22;45078;51.654;21.250;2022-08-01T13:10:12;24.90;99.90
59311;DHT22;45078;51.654;21.250;2022-08-01T13:12:40;24.90;99.90
59311;DHT22;45078;51.654;21.250;2022-08-01T13:15:24;25.20;99.90
59311;DHT22;45078;51.654;21.250;2022-08-01T13:17:54;25.60;99.90
59311;DHT22;45078;51.654;21.250;2022-08-01T13:20:28;25.60;99.90
59311;DHT22;45078;51.654;21.250;2022-08-01T13:22:55;26.40;99.10
59311;DHT22;45078;51.654;21.250;2022-08-01T13:25:21;26.20;99.90
59311;DHT22;45078;51.654;21.250;2022-08-01T13:27:47;26.50;99.20
59311;DHT22;45078;51.654;21.250;2022-08-01T13:30:19;26.70;99.70
59311;DHT22;45078;51.654;21.250;2022-08-01T13:33:04;27.30;98.20
59311;DHT22;45078;51.654;21.250;2022-08-01T13:35:29;26.30;96.60
59311;DHT22;45078;51.654;21.250;2022-08-01T13:37:55;26.10;97.70
59311;DHT22;45078;51.654;21.250;2022-08-01T13:40:26;25.80;98.60
59311;DHT22;45078;51.654;21.250;2022-08-01T13:42:55;25.90;98.80
59311;DHT22;45078;51.654;21.250;2022-08-01T13:45:22;25.90;98.90
59311;DHT22;45078;51.654;21.250;2022-08-01T13:47:48;25.80;99.20
59311;DHT22;45078;51.654;21.250;2022-08-01T13:50:14;26.20;99.10
59311;DHT22;45078;51.654;21.250;2022-08-01T13:52:40;26.10;98.90
59311;DHT22;45078;51.654;21.250;2022-08-01T13:55:06;26.50;99.10
59311;DHT22;45078;51.654;21.250;2022-08-01T13:57:33;26.70;98.70
59311;DHT22;45078;51.654;21.250;2022-08-01T13:59:58;26.70;98.40
59311;DHT22;45078;51.654;21.250;2022-08-01T14:02:26;26.70;97.90
59311;DHT22;45078;51.654;21.250;2022-08-01T14:04:53;26.80;98.20
59311;DHT22;45078;51.654;21.250;2022-08-01T14:07:24;27.30;98.00
59311;DHT22;45078;51.654;21.250;2022-08-01T14:09:50;27.10;98.10
59311;DHT22;45078;51.654;21.250;2022-08-01T14:12:16;27.20;97.70
59311;DHT22;45078;51.654;21.250;2022-08-01T14:14:41;27.40;97.10
59311;DHT22;45078;51.654;21.250;2022-08-01T14:17:07;27.70;96.00
59311;DHT22;45078;51.654;21.250;2022-08-01T14:19:33;27.40;95.50
59311;DHT22;45078;51.654;21.250;2022-08-01T14:21:59;28.00;95.20
59311;DHT22;45078;51.654;21.250;2022-08-01T14:24:25;28.40;94.10
59311;DHT22;45078;51.654;21.250;2022-08-01T14:26:52;28.80;93.50
59311;DHT22;45078;51.654;21.250;2022-08-01T14:29:18;28.70;93.70
59311;DHT22;45078;51.654;21.250;2022-08-01T14:31:43;28.40;92.20
59311;DHT22;45078;51.654;21.250;2022-08-01T14:34:09;28.70;93.20
59311;DHT22;45078;51.654;21.250;2022-08-01T14:36:35;28.60;92.30
59311;DHT22;45078;51.654;21.250;2022-08-01T14:39:01;28.00;92.50
59311;DHT22;45078;51.654;21.250;2022-08-01T14:41:27;28.00;94.60
59311;DHT22;45078;51.654;21.250;2022-08-01T14:43:53;27.80;93.70
59311;DHT22;45078;51.654;21.250;2022-08-01T14:46:19;27.80;94.30
59311;DHT22;45078;51.654;21.250;2022-08-01T14:48:45;28.10;92.70
59311;DHT22;45078;51.654;21.250;2022-08-01T14:51:11;28.00;94.40
59311;DHT22;45078;51.654;21.250;2022-08-01T14:53:36;27.50;94.10
59311;DHT22;45078;51.654;21.250;2022-08-01T14:56:06;27.80;92.90
59311;DHT22;45078;51.654;21.250;2022-08-01T14:58:33;27.60;94.90
59311;DHT22;45078;51.654;21.250;2022-08-01T15:00:58;27.80;94.40
59311;DHT22;45078;51.654;21.250;2022-08-01T15:03:24;27.70;92.40
59311;DHT22;45078;51.654;21.250;2022-08-01T15:05:50;27.90;91.60
59311;DHT22;45078;51.654;21.250;2022-08-01T15:08:17;27.90;91.30
59311;DHT22;45078;51.654;21.250;2022-08-01T15:10:43;27.60;93.10
59311;DHT22;45078;51.654;21.250;2022-08-01T15:13:08;27.20;93.00
59311;DHT22;45078;51.654;21.250;2022-08-01T15:15:34;27.20;92.60
59311;DHT22;45078;51.654;21.250;2022-08-01T15:18:00;27.00;93.20
59311;DHT22;45078;51.654;21.250;2022-08-01T15:20:26;26.50;94.20
59311;DHT22;45078;51.654;21.250;2022-08-01T15:22:55;26.60;94.80
59311;DHT22;45078;51.654;21.250;2022-08-01T15:25:22;26.80;95.10
59311;DHT22;45078;51.654;21.250;2022-08-01T15:27:48;26.60;95.10
59311;DHT22;45078;51.654;21.250;2022-08-01T15:30:13;26.50;95.70
59311;DHT22;45078;51.654;21.250;2022-08-01T15:32:39;26.30;96.30
59311;DHT22;45078;51.654;21.250;2022-08-01T15:35:06;26.30;96.00
59311;DHT22;45078;51.654;21.250;2022-08-01T15:37:32;26.00;96.20
59311;DHT22;45078;51.654;21.250;2022-08-01T15:39:58;26.00;96.60
59311;DHT22;45078;51.654;21.250;2022-08-01T15:42:24;25.90;96.60
59311;DHT22;45078;51.654;21.250;2022-08-01T15:44:49;25.70;97.40